Maersk Windhoek — 3FWJ3 — position and weather

sailwx.info

Track history (hours):
 
Tides and Currents Weather Stations Pressure Air Temp Water Temp Dewpoint Dewpoint Depression Visibility Wind Speed Wind Dir Waves Ship Positions

Maersk Windhoek

Last reported at 2015-Jan-29 18:10 UTC. Time now 2015-Feb-01 08:43 UTC.
Position N 41°54' E 005°04'.

Length 172 m; draft 9.6 m.

Type: Ship (hazmat cat C). MMSI: 370431000.

Date/timePositionNaut miles runAvg speedWind from/ knotsBaromVisibWave heightAir tempDewpointWater temp
2015-Jan-29 18:10N 41°54' E 005°04'1116.4
2015-Jan-29 17:29N 42°05' E 005°03'1516.1
2015-Jan-29 16:33N 42°20' E 005°02'2316.8
2015-Jan-29 15:10N 42°43' E 005°01'1016.6
2015-Jan-29 14:33N 42°53' E 005°00'1716.9
2015-Jan-29 13:33N 43°10' E 004°59'1313.1
2015-Jan-29 12:33N 43°23' E 004°57'5 5.1
2015-Jan-29 11:32N 43°25' E 004°50'0 0.0
2015-Jan-29 10:32N 43°25' E 004°50'0 0.0
2015-Jan-29 09:32N 43°25' E 004°50'0 0.0
2015-Jan-29 08:32N 43°25' E 004°50'0 0.0
2015-Jan-29 07:32N 43°25' E 004°50'0 0.0
2015-Jan-29 06:32N 43°25' E 004°50'0 0.0
2015-Jan-29 05:32N 43°25' E 004°50'0 0.0
2015-Jan-29 04:32N 43°25' E 004°50'0 0.0
2015-Jan-29 03:32N 43°25' E 004°50'0 0.0
2015-Jan-29 02:32N 43°25' E 004°50'0 0.0
2015-Jan-29 01:32N 43°25' E 004°50'0 0.0
2015-Jan-29 00:32N 43°25' E 004°50'0 0.0
2015-Jan-28 23:32N 43°25' E 004°50'0 0.0
2015-Jan-28 22:32N 43°25' E 004°50'0 0.0
2015-Jan-28 21:32N 43°25' E 004°50'0 0.0
2015-Jan-28 20:32N 43°25' E 004°50'0 0.0
2015-Jan-28 19:32N 43°25' E 004°50'6 5.7
2015-Jan-28 18:34N 43°23' E 004°57'10 9.5
2015-Jan-28 17:33N 43°14' E 005°02'5 4.8
2015-Jan-28 16:28N 43°09' E 005°01'1 1.2
2015-Jan-28 15:33N 43°10' E 005°01'1313.1
2015-Jan-28 14:33N 43°09' E 004°43'1716.1
2015-Jan-28 13:29N 43°08' E 004°19'1515.8
2015-Jan-28 12:31N 43°07' E 003°58'1616.0
2015-Jan-28 11:30N 43°05' E 003°36'1814.1
2015-Jan-28 10:11N 42°48' E 003°27'913.6
2015-Jan-28 09:31N 42°39' E 003°24'1814.1
2015-Jan-28 08:14N 42°20' E 003°23'69 6.9
2015-Jan-27 22:07N 41°19' E 002°40'1111.6
2015-Jan-27 21:13N 41°18' E 002°26'13 1.2
2015-Jan-27 10:13N 41°18' E 002°09'0 0.0
2015-Jan-27 09:31N 41°18' E 002°09'0 0.0
2015-Jan-27 08:31N 41°18' E 002°09'0 0.0
2015-Jan-27 07:31N 41°18' E 002°09'1 1.0
2015-Jan-27 06:33N 41°19' E 002°10'12 4.1
2015-Jan-27 03:33N 41°07' E 002°06'1616.0
2015-Jan-27 02:33N 40°54' E 001°53'1616.1
2015-Jan-27 01:33N 40°41' E 001°41'1615.8
2015-Jan-27 00:33N 40°28' E 001°29'1515.2
2015-Jan-26 23:34N 40°16' E 001°18'1615.9
2015-Jan-26 22:33N 40°02' E 001°07'1616.1
2015-Jan-26 21:33N 39°48' E 000°56'5114.7
2015-Jan-26 18:04N 39°27' W 000°05'814.7
2015-Jan-26 17:32N 39°26' W 000°15'4 3.5
2015-Jan-26 16:31N 39°26' W 000°19'0 0.0
2015-Jan-26 15:31N 39°26' W 000°19'0 0.0
2015-Jan-26 14:31N 39°26' W 000°19'0 0.0
2015-Jan-26 13:31N 39°26' W 000°19'0 0.0
2015-Jan-26 12:28N 39°26' W 000°19'0 0.0
2015-Jan-26 11:31N 39°26' W 000°19'0 0.0
2015-Jan-26 10:31N 39°26' W 000°19'0 0.0
2015-Jan-26 09:31N 39°26' W 000°19'0 0.0
2015-Jan-26 08:31N 39°26' W 000°19'0 0.0
2015-Jan-26 07:31N 39°26' W 000°19'0 0.0
2015-Jan-26 06:31N 39°26' W 000°19'0 0.0
2015-Jan-26 05:31N 39°26' W 000°19'0 0.0
2015-Jan-26 04:31N 39°26' W 000°19'0 0.0
2015-Jan-26 03:31N 39°26' W 000°19'0 0.0
2015-Jan-26 02:31N 39°26' W 000°19'0 0.0
2015-Jan-26 01:31N 39°26' W 000°19'0 0.0
2015-Jan-26 00:31N 39°26' W 000°19'0 0.0
2015-Jan-25 23:31N 39°26' W 000°19'0 0.0
2015-Jan-25 22:31N 39°26' W 000°19'0 0.0
2015-Jan-25 21:31N 39°26' W 000°19'0 0.0
2015-Jan-25 20:31N 39°26' W 000°19'1 0.5
2015-Jan-25 19:32N 39°26' W 000°19'0 0.0
2015-Jan-25 18:29N 39°26' W 000°19'0 0.0
2015-Jan-25 17:29N 39°26' W 000°19'0 0.0
2015-Jan-25 16:32N 39°26' W 000°19'0 0.0
2015-Jan-25 15:32N 39°26' W 000°19'0 0.0
2015-Jan-25 14:32N 39°26' W 000°19'0 0.0
2015-Jan-25 13:32N 39°26' W 000°19'0 0.0
2015-Jan-25 12:26N 39°26' W 000°19'0 0.0
2015-Jan-25 11:29N 39°26' W 000°19'0 0.0
2015-Jan-25 10:32N 39°26' W 000°19'0 0.0
2015-Jan-25 09:32N 39°26' W 000°19'0 0.0
2015-Jan-25 08:29N 39°26' W 000°19'0 0.0
2015-Jan-25 07:32N 39°26' W 000°19'0 0.0
2015-Jan-25 06:32N 39°26' W 000°19'0 0.0
2015-Jan-25 05:29N 39°26' W 000°19'0 0.0
2015-Jan-25 04:32N 39°26' W 000°19'0 0.0
2015-Jan-25 03:32N 39°26' W 000°19'0 0.0
2015-Jan-25 02:32N 39°26' W 000°19'0 0.0
2015-Jan-25 01:32N 39°26' W 000°19'0 0.0
2015-Jan-25 00:20N 39°26' W 000°19'0 0.0
2015-Jan-24 23:33N 39°26' W 000°19'3 2.6
2015-Jan-24 22:33N 39°25' W 000°17'1 1.3
2015-Jan-24 21:28N 39°23' W 000°16'0 0.1
2015-Jan-24 20:31N 39°23' W 000°16'0 0.0
2015-Jan-24 19:25N 39°23' W 000°16'0 0.1
2015-Jan-24 18:28N 39°24' W 000°16'0 0.0
2015-Jan-24 13:22N 39°24' W 000°16'0 0.0
2015-Jan-24 11:25N 39°23' W 000°16'0 0.0
2015-Jan-24 10:19N 39°23' W 000°16'0 0.0
2015-Jan-24 09:19N 39°23' W 000°16'0 0.0
2015-Jan-24 08:19N 39°23' W 000°16'0 0.0
2015-Jan-24 07:10N 39°23' W 000°16'0 0.0
2015-Jan-24 06:31N 39°23' W 000°16'0 0.2
2015-Jan-24 05:33N 39°23' W 000°16'5 5.3
2015-Jan-24 04:31N 39°23' W 000°09'6815.7
2015-Jan-24 00:13N 38°44' E 001°03'1516.5
2015-Jan-23 23:16N 38°35' E 001°19'  
Track history (hours):
 
Tides and Currents Weather Stations Pressure Air Temp Water Temp Dewpoint Dewpoint Depression Visibility Wind Speed Wind Dir Waves Ship Positions

Maersk Windhoek

Last reported at 2015-Jan-29 18:10 UTC. Time now 2015-Feb-01 08:43 UTC.
Position N 41°54' E 005°04'.

Length 172 m; draft 9.6 m.

Type: Ship (hazmat cat C). MMSI: 370431000.

Date/timePositionNaut miles runAvg speedWind from/ knotsBaromVisibWave heightAir tempDewpointWater temp
2015-Jan-29 18:10N 41°54' E 005°04'1116.4
2015-Jan-29 17:29N 42°05' E 005°03'1516.1
2015-Jan-29 16:33N 42°20' E 005°02'2316.8
2015-Jan-29 15:10N 42°43' E 005°01'1016.6
2015-Jan-29 14:33N 42°53' E 005°00'1716.9
2015-Jan-29 13:33N 43°10' E 004°59'1313.1
2015-Jan-29 12:33N 43°23' E 004°57'5 5.1
2015-Jan-29 11:32N 43°25' E 004°50'0 0.0
2015-Jan-29 10:32N 43°25' E 004°50'0 0.0
2015-Jan-29 09:32N 43°25' E 004°50'0 0.0
2015-Jan-29 08:32N 43°25' E 004°50'0 0.0
2015-Jan-29 07:32N 43°25' E 004°50'0 0.0
2015-Jan-29 06:32N 43°25' E 004°50'0 0.0
2015-Jan-29 05:32N 43°25' E 004°50'0 0.0
2015-Jan-29 04:32N 43°25' E 004°50'0 0.0
2015-Jan-29 03:32N 43°25' E 004°50'0 0.0
2015-Jan-29 02:32N 43°25' E 004°50'0 0.0
2015-Jan-29 01:32N 43°25' E 004°50'0 0.0
2015-Jan-29 00:32N 43°25' E 004°50'0 0.0
2015-Jan-28 23:32N 43°25' E 004°50'0 0.0
2015-Jan-28 22:32N 43°25' E 004°50'0 0.0
2015-Jan-28 21:32N 43°25' E 004°50'0 0.0
2015-Jan-28 20:32N 43°25' E 004°50'0 0.0
2015-Jan-28 19:32N 43°25' E 004°50'6 5.7
2015-Jan-28 18:34N 43°23' E 004°57'10 9.5
2015-Jan-28 17:33N 43°14' E 005°02'5 4.8
2015-Jan-28 16:28N 43°09' E 005°01'1 1.2
2015-Jan-28 15:33N 43°10' E 005°01'1313.1
2015-Jan-28 14:33N 43°09' E 004°43'1716.1
2015-Jan-28 13:29N 43°08' E 004°19'1515.8
2015-Jan-28 12:31N 43°07' E 003°58'1616.0
2015-Jan-28 11:30N 43°05' E 003°36'1814.1
2015-Jan-28 10:11N 42°48' E 003°27'913.6
2015-Jan-28 09:31N 42°39' E 003°24'1814.1
2015-Jan-28 08:14N 42°20' E 003°23'69 6.9
2015-Jan-27 22:07N 41°19' E 002°40'1111.6
2015-Jan-27 21:13N 41°18' E 002°26'13 1.2
2015-Jan-27 10:13N 41°18' E 002°09'0 0.0
2015-Jan-27 09:31N 41°18' E 002°09'0 0.0
2015-Jan-27 08:31N 41°18' E 002°09'0 0.0
2015-Jan-27 07:31N 41°18' E 002°09'1 1.0
2015-Jan-27 06:33N 41°19' E 002°10'12 4.1
2015-Jan-27 03:33N 41°07' E 002°06'1616.0
2015-Jan-27 02:33N 40°54' E 001°53'1616.1
2015-Jan-27 01:33N 40°41' E 001°41'1615.8
2015-Jan-27 00:33N 40°28' E 001°29'1515.2
2015-Jan-26 23:34N 40°16' E 001°18'1615.9
2015-Jan-26 22:33N 40°02' E 001°07'1616.1
2015-Jan-26 21:33N 39°48' E 000°56'5114.7
2015-Jan-26 18:04N 39°27' W 000°05'814.7
2015-Jan-26 17:32N 39°26' W 000°15'4 3.5
2015-Jan-26 16:31N 39°26' W 000°19'0 0.0
2015-Jan-26 15:31N 39°26' W 000°19'0 0.0
2015-Jan-26 14:31N 39°26' W 000°19'0 0.0
2015-Jan-26 13:31N 39°26' W 000°19'0 0.0
2015-Jan-26 12:28N 39°26' W 000°19'0 0.0
2015-Jan-26 11:31N 39°26' W 000°19'0 0.0
2015-Jan-26 10:31N 39°26' W 000°19'0 0.0
2015-Jan-26 09:31N 39°26' W 000°19'0 0.0
2015-Jan-26 08:31N 39°26' W 000°19'0 0.0
2015-Jan-26 07:31N 39°26' W 000°19'0 0.0
2015-Jan-26 06:31N 39°26' W 000°19'0 0.0
2015-Jan-26 05:31N 39°26' W 000°19'0 0.0
2015-Jan-26 04:31N 39°26' W 000°19'0 0.0
2015-Jan-26 03:31N 39°26' W 000°19'0 0.0
2015-Jan-26 02:31N 39°26' W 000°19'0 0.0
2015-Jan-26 01:31N 39°26' W 000°19'0 0.0
2015-Jan-26 00:31N 39°26' W 000°19'0 0.0
2015-Jan-25 23:31N 39°26' W 000°19'0 0.0
2015-Jan-25 22:31N 39°26' W 000°19'0 0.0
2015-Jan-25 21:31N 39°26' W 000°19'0 0.0
2015-Jan-25 20:31N 39°26' W 000°19'1 0.5
2015-Jan-25 19:32N 39°26' W 000°19'0 0.0
2015-Jan-25 18:29N 39°26' W 000°19'0 0.0
2015-Jan-25 17:29N 39°26' W 000°19'0 0.0
2015-Jan-25 16:32N 39°26' W 000°19'0 0.0
2015-Jan-25 15:32N 39°26' W 000°19'0 0.0
2015-Jan-25 14:32N 39°26' W 000°19'0 0.0
2015-Jan-25 13:32N 39°26' W 000°19'0 0.0
2015-Jan-25 12:26N 39°26' W 000°19'0 0.0
2015-Jan-25 11:29N 39°26' W 000°19'0 0.0
2015-Jan-25 10:32N 39°26' W 000°19'0 0.0
2015-Jan-25 09:32N 39°26' W 000°19'0 0.0
2015-Jan-25 08:29N 39°26' W 000°19'0 0.0
2015-Jan-25 07:32N 39°26' W 000°19'0 0.0
2015-Jan-25 06:32N 39°26' W 000°19'0 0.0
2015-Jan-25 05:29N 39°26' W 000°19'0 0.0
2015-Jan-25 04:32N 39°26' W 000°19'0 0.0
2015-Jan-25 03:32N 39°26' W 000°19'0 0.0
2015-Jan-25 02:32N 39°26' W 000°19'0 0.0
2015-Jan-25 01:32N 39°26' W 000°19'0 0.0
2015-Jan-25 00:20N 39°26' W 000°19'0 0.0
2015-Jan-24 23:33N 39°26' W 000°19'3 2.6
2015-Jan-24 22:33N 39°25' W 000°17'1 1.3
2015-Jan-24 21:28N 39°23' W 000°16'0 0.1
2015-Jan-24 20:31N 39°23' W 000°16'0 0.0
2015-Jan-24 19:25N 39°23' W 000°16'0 0.1
2015-Jan-24 18:28N 39°24' W 000°16'0 0.0
2015-Jan-24 13:22N 39°24' W 000°16'0 0.0
2015-Jan-24 11:25N 39°23' W 000°16'0 0.0
2015-Jan-24 10:19N 39°23' W 000°16'0 0.0
2015-Jan-24 09:19N 39°23' W 000°16'0 0.0
2015-Jan-24 08:19N 39°23' W 000°16'0 0.0
2015-Jan-24 07:10N 39°23' W 000°16'0 0.0
2015-Jan-24 06:31N 39°23' W 000°16'0 0.2
2015-Jan-24 05:33N 39°23' W 000°16'5 5.3
2015-Jan-24 04:31N 39°23' W 000°09'6815.7
2015-Jan-24 00:13N 38°44' E 001°03'1516.5
2015-Jan-23 23:16N 38°35' E 001°19'  

Dump ship's entire track history